Time;durP1;ratioP1;P1;durP2;ratioP2;P2;SDS_P1;SDS_P2;PMS_P1;PMS_P2;Temp;Humidity;BMP_temperature;BMP_pressure;BME280_temperature;BME280_humidity;BME280_pressure;Samples;Min_cycle;Max_cycle;Signal;HPM_P1;HPM_P2
2021/10/17 00:00:06;;;;;;;22.30;15.07;;;;;;;;;;5118449;28;20212;-66
2021/10/17 00:02:34;;;;;;;21.73;15.10;;;;;;;;;;5118035;28;20205;-66
2021/10/17 00:05:03;;;;;;;24.17;14.23;;;;;;;;;;5118293;28;20221;-66
2021/10/17 00:07:31;;;;;;;23.33;14.60;;;;;;;;;;5118141;28;20225;-66
2021/10/17 00:10:00;;;;;;;20.50;13.83;;;;;;;;;;5117839;28;20676;-66
2021/10/17 00:12:28;;;;;;;21.90;14.33;;;;;;;;;;5117610;28;20723;-66
2021/10/17 00:14:56;;;;;;;24.63;14.80;;;;;;;;;;5117855;28;20228;-66
2021/10/17 00:17:25;;;;;;;20.53;13.33;;;;;;;;;;5118089;28;20209;-66
2021/10/17 00:19:53;;;;;;;20.60;14.37;;;;;;;;;;5117905;28;20595;-66
2021/10/17 00:22:21;;;;;;;22.57;14.50;;;;;;;;;;5118173;28;20204;-66
2021/10/17 00:24:49;;;;;;;21.80;14.40;;;;;;;;;;5117755;28;20227;-66
2021/10/17 00:27:18;;;;;;;20.37;14.00;;;;;;;;;;5117972;28;20308;-66
2021/10/17 00:29:46;;;;;;;21.10;14.77;;;;;;;;;;5118262;28;20215;-66
2021/10/17 00:32:14;;;;;;;22.40;14.57;;;;;;;;;;5117724;28;20204;-66
2021/10/17 00:34:42;;;;;;;22.37;14.63;;;;;;;;;;5117708;28;20592;-66
2021/10/17 00:37:10;;;;;;;22.43;13.17;;;;;;;;;;5117721;28;20201;-66
2021/10/17 00:39:38;;;;;;;18.93;13.20;;;;;;;;;;5117532;28;20602;-66
2021/10/17 00:42:06;;;;;;;18.90;12.83;;;;;;;;;;5117671;28;20211;-66
2021/10/17 00:44:38;;;;;;;19.67;13.17;;;;;;;;;;5117459;28;20707;-66
2021/10/17 00:47:06;;;;;;;19.30;13.47;;;;;;;;;;5117914;28;20225;-66
2021/10/17 00:49:34;;;;;;;19.87;12.87;;;;;;;;;;5117737;28;20205;-66
2021/10/17 00:52:02;;;;;;;18.53;11.80;;;;;;;;;;5117978;28;20205;-66
2021/10/17 00:54:30;;;;;;;15.10;11.50;;;;;;;;;;5117795;28;20221;-66
2021/10/17 00:56:58;;;;;;;19.13;11.87;;;;;;;;;;5117803;28;20668;-66
2021/10/17 00:59:26;;;;;;;18.53;12.60;;;;;;;;;;5117708;28;20213;-66
2021/10/17 01:01:56;;;;;;;18.00;12.00;;;;;;;;;;5118142;28;20212;-66
2021/10/17 01:04:24;;;;;;;15.63;11.87;;;;;;;;;;5121561;28;20312;-66
2021/10/17 01:06:52;;;;;;;20.80;12.93;;;;;;;;;;5121450;28;20287;-66
2021/10/17 01:09:20;;;;;;;17.13;12.50;;;;;;;;;;5121782;28;20209;-66
2021/10/17 01:11:48;;;;;;;16.30;11.83;;;;;;;;;;5121730;28;20208;-66
2021/10/17 01:14:17;;;;;;;17.33;12.63;;;;;;;;;;5120820;27;20650;-66
2021/10/17 01:16:45;;;;;;;19.70;12.80;;;;;;;;;;5121294;28;20205;-66
2021/10/17 01:19:14;;;;;;;18.07;12.40;;;;;;;;;;5121287;28;20207;-66
2021/10/17 01:21:44;;;;;;;21.37;13.17;;;;;;;;;;5121016;28;20211;-66
2021/10/17 01:24:13;;;;;;;22.67;13.53;;;;;;;;;;5121102;28;20263;-66
2021/10/17 01:26:42;;;;;;;22.47;13.87;;;;;;;;;;5121104;28;20215;-66
2021/10/17 01:29:10;;;;;;;22.23;13.40;;;;;;;;;;5120822;28;20252;-66
2021/10/17 01:31:39;;;;;;;20.23;13.40;;;;;;;;;;5120853;28;20213;-66
2021/10/17 01:34:08;;;;;;;22.20;14.30;;;;;;;;;;5120968;28;20232;-66
2021/10/17 01:36:36;;;;;;;22.20;13.60;;;;;;;;;;5120798;28;20211;-66
2021/10/17 01:39:06;;;;;;;22.60;13.17;;;;;;;;;;5120913;28;20236;-66
2021/10/17 01:41:34;;;;;;;20.87;12.57;;;;;;;;;;5120943;28;20292;-66
2021/10/17 01:44:03;;;;;;;19.70;12.77;;;;;;;;;;5120276;28;20231;-66
2021/10/17 01:46:31;;;;;;;19.17;12.83;;;;;;;;;;5120696;28;20439;-66
2021/10/17 01:48:59;;;;;;;18.50;12.50;;;;;;;;;;5120587;28;20234;-66
2021/10/17 01:51:26;;;;;;;19.23;12.20;;;;;;;;;;5120781;28;20208;-65
2021/10/17 01:53:54;;;;;;;23.03;13.23;;;;;;;;;;5120948;28;20224;-66
2021/10/17 01:56:24;;;;;;;22.07;13.90;;;;;;;;;;5120441;27;20209;-65
2021/10/17 01:58:52;;;;;;;19.20;12.50;;;;;;;;;;5119879;28;20207;-66
2021/10/17 02:01:20;;;;;;;20.27;12.70;;;;;;;;;;5120003;28;20211;-66
2021/10/17 02:03:48;;;;;;;19.40;13.80;;;;;;;;;;5120096;28;20225;-66
2021/10/17 02:06:16;;;;;;;19.77;12.70;;;;;;;;;;5120323;28;20215;-66
2021/10/17 02:08:44;;;;;;;21.57;13.73;;;;;;;;;;5120058;28;20221;-66
2021/10/17 02:11:12;;;;;;;19.33;12.43;;;;;;;;;;5120283;28;20204;-65
2021/10/17 02:13:41;;;;;;;23.93;13.37;;;;;;;;;;5119247;28;20200;-65
2021/10/17 02:16:09;;;;;;;22.83;13.97;;;;;;;;;;5119955;28;20232;-65
2021/10/17 02:18:37;;;;;;;28.73;14.00;;;;;;;;;;5119771;28;20242;-66
2021/10/17 02:21:05;;;;;;;20.97;13.67;;;;;;;;;;5120197;28;20211;-65
2021/10/17 02:23:33;;;;;;;26.73;13.43;;;;;;;;;;5119594;28;20555;-65
2021/10/17 02:26:02;;;;;;;20.97;13.63;;;;;;;;;;5119953;28;20560;-65
2021/10/17 02:28:30;;;;;;;21.80;12.50;;;;;;;;;;5119578;28;20231;-66
2021/10/17 02:30:59;;;;;;;20.23;14.53;;;;;;;;;;5119835;28;20208;-66
2021/10/17 02:33:27;;;;;;;18.17;12.60;;;;;;;;;;5119647;28;20204;-65
2021/10/17 02:35:55;;;;;;;18.33;12.93;;;;;;;;;;5119845;28;20450;-65
2021/10/17 02:38:23;;;;;;;21.80;13.50;;;;;;;;;;5119999;28;20283;-68
2021/10/17 02:40:51;;;;;;;21.17;12.57;;;;;;;;;;5119653;28;20442;-65
2021/10/17 02:43:19;;;;;;;18.00;12.53;;;;;;;;;;5119493;28;20205;-66
2021/10/17 02:45:47;;;;;;;20.00;12.73;;;;;;;;;;5119742;28;20231;-66
2021/10/17 02:48:17;;;;;;;19.90;13.37;;;;;;;;;;5119556;28;20238;-66
2021/10/17 02:50:45;;;;;;;22.13;14.30;;;;;;;;;;5119595;28;20201;-65
2021/10/17 02:53:13;;;;;;;19.30;13.17;;;;;;;;;;5119213;28;20238;-66
2021/10/17 02:55:41;;;;;;;20.73;13.43;;;;;;;;;;5119409;28;20585;-66
2021/10/17 02:58:09;;;;;;;17.97;12.37;;;;;;;;;;5118925;27;20264;-66
2021/10/17 03:00:37;;;;;;;22.33;12.13;;;;;;;;;;5119271;28;20296;-66
2021/10/17 03:03:05;;;;;;;19.07;12.20;;;;;;;;;;5118711;28;20204;-66
2021/10/17 03:05:35;;;;;;;22.60;13.20;;;;;;;;;;5119039;27;20266;-66
2021/10/17 03:08:03;;;;;;;18.83;13.30;;;;;;;;;;5119067;28;20787;-66
2021/10/17 03:10:31;;;;;;;19.17;12.30;;;;;;;;;;5119598;28;20452;-67
2021/10/17 03:12:59;;;;;;;18.20;11.93;;;;;;;;;;5119110;28;20217;-65
2021/10/17 03:15:27;;;;;;;18.33;11.90;;;;;;;;;;5119048;28;20250;-66
2021/10/17 03:17:55;;;;;;;19.37;11.87;;;;;;;;;;5118836;28;20449;-66
2021/10/17 03:20:23;;;;;;;21.00;11.73;;;;;;;;;;5118805;27;20245;-65
2021/10/17 03:22:53;;;;;;;18.40;11.63;;;;;;;;;;5118616;28;20215;-65
2021/10/17 03:25:21;;;;;;;17.53;11.57;;;;;;;;;;5118382;28;20936;-66
2021/10/17 03:27:48;;;;;;;17.30;11.87;;;;;;;;;;5118635;28;20209;-66
2021/10/17 03:30:17;;;;;;;17.97;11.83;;;;;;;;;;5118612;28;20490;-66
2021/10/17 03:32:45;;;;;;;17.20;11.37;;;;;;;;;;5118819;28;20443;-65
2021/10/17 03:35:13;;;;;;;18.47;12.00;;;;;;;;;;5118414;28;20469;-65
2021/10/17 03:37:41;;;;;;;21.33;12.27;;;;;;;;;;5118710;28;20287;-66
2021/10/17 03:40:11;;;;;;;16.80;10.67;;;;;;;;;;5118291;28;20239;-66
2021/10/17 03:42:38;;;;;;;16.27;10.70;;;;;;;;;;5118296;28;20208;-66
2021/10/17 03:45:07;;;;;;;22.97;12.37;;;;;;;;;;5118534;28;20225;-66
2021/10/17 03:47:35;;;;;;;16.43;11.03;;;;;;;;;;5118406;28;20672;-66
2021/10/17 03:50:03;;;;;;;17.47;11.20;;;;;;;;;;5118520;28;20235;-66
2021/10/17 03:52:31;;;;;;;15.73;10.90;;;;;;;;;;5118317;28;20261;-66
2021/10/17 03:54:59;;;;;;;20.30;12.53;;;;;;;;;;5118525;28;20228;-66
2021/10/17 03:57:28;;;;;;;18.80;11.80;;;;;;;;;;5118225;28;20204;-66
2021/10/17 03:59:56;;;;;;;17.10;11.73;;;;;;;;;;5118166;28;20207;-66
2021/10/17 04:02:24;;;;;;;18.63;11.40;;;;;;;;;;5117947;28;20625;-66
2021/10/17 04:04:52;;;;;;;17.43;11.47;;;;;;;;;;5118099;28;20228;-66
2021/10/17 04:07:20;;;;;;;21.03;11.40;;;;;;;;;;5118115;28;20569;-66
2021/10/17 04:09:48;;;;;;;15.57;10.13;;;;;;;;;;5118470;28;20220;-66
2021/10/17 04:12:16;;;;;;;17.57;10.73;;;;;;;;;;5117897;28;20668;-66
2021/10/17 04:14:46;;;;;;;16.13;10.87;;;;;;;;;;5118139;28;20292;-66
2021/10/17 04:17:14;;;;;;;17.97;11.10;;;;;;;;;;5117917;28;20211;-66
2021/10/17 04:19:42;;;;;;;14.67;10.27;;;;;;;;;;5118114;28;20205;-66
2021/10/17 04:22:10;;;;;;;17.03;9.90;;;;;;;;;;5118541;28;20284;-66
2021/10/17 04:24:38;;;;;;;14.87;10.60;;;;;;;;;;5117989;28;20217;-66
2021/10/17 04:27:07;;;;;;;14.47;10.10;;;;;;;;;;5117551;28;20211;-66
2021/10/17 04:29:35;;;;;;;15.57;10.57;;;;;;;;;;5118041;28;20303;-66
2021/10/17 04:32:06;;;;;;;15.00;10.93;;;;;;;;;;5117564;28;20211;-66
2021/10/17 04:34:34;;;;;;;14.47;10.33;;;;;;;;;;5117927;28;20325;-66
2021/10/17 04:37:03;;;;;;;12.77;9.50;;;;;;;;;;5118693;28;20269;-66
2021/10/17 04:39:31;;;;;;;14.57;10.73;;;;;;;;;;5121978;27;20300;-66
2021/10/17 04:41:59;;;;;;;15.70;10.73;;;;;;;;;;5121687;28;20765;-66
2021/10/17 04:44:28;;;;;;;15.90;10.53;;;;;;;;;;5122194;28;20224;-66
2021/10/17 04:46:56;;;;;;;15.27;10.40;;;;;;;;;;5121331;28;20714;-66
2021/10/17 04:49:26;;;;;;;15.00;10.43;;;;;;;;;;5121699;28;20224;-66
2021/10/17 04:51:54;;;;;;;14.80;10.07;;;;;;;;;;5121857;28;20217;-66
2021/10/17 04:54:22;;;;;;;16.73;10.87;;;;;;;;;;5121794;28;20312;-66
2021/10/17 04:56:50;;;;;;;17.43;12.07;;;;;;;;;;5121608;28;20209;-66
2021/10/17 04:59:21;;;;;;;17.50;10.77;;;;;;;;;;5121668;28;20201;-66
2021/10/17 05:01:49;;;;;;;15.30;10.77;;;;;;;;;;5121625;28;20292;-66
2021/10/17 05:04:18;;;;;;;17.53;11.47;;;;;;;;;;5121730;27;20303;-66
2021/10/17 05:06:47;;;;;;;16.13;10.80;;;;;;;;;;5125133;27;20201;-65
2021/10/17 05:09:15;;;;;;;16.13;10.63;;;;;;;;;;5131011;27;20280;-65
2021/10/17 05:11:43;;;;;;;18.77;12.00;;;;;;;;;;5130662;27;20197;-65
2021/10/17 05:14:11;;;;;;;22.20;12.53;;;;;;;;;;5126866;27;20327;-66
2021/10/17 05:16:39;;;;;;;18.23;12.60;;;;;;;;;;5131094;27;20198;-66
2021/10/17 05:19:07;;;;;;;18.73;12.63;;;;;;;;;;5124728;27;20205;-66
2021/10/17 05:21:35;;;;;;;18.57;11.80;;;;;;;;;;5121341;28;20291;-66
2021/10/17 05:24:05;;;;;;;23.20;12.60;;;;;;;;;;5121006;28;20463;-65
2021/10/17 05:26:33;;;;;;;16.30;11.93;;;;;;;;;;5120803;28;20816;-65
2021/10/17 05:29:01;;;;;;;17.53;11.40;;;;;;;;;;5120699;27;20207;-66
2021/10/17 05:31:29;;;;;;;21.53;12.57;;;;;;;;;;5120618;28;20590;-66
2021/10/17 05:33:57;;;;;;;17.93;12.30;;;;;;;;;;5121166;28;20225;-66
2021/10/17 05:36:25;;;;;;;19.60;12.30;;;;;;;;;;5121191;28;20205;-66
2021/10/17 05:38:53;;;;;;;23.20;13.00;;;;;;;;;;5127296;27;20227;-67
2021/10/17 05:41:25;;;;;;;19.40;12.70;;;;;;;;;;5126899;27;20279;-65
2021/10/17 05:43:53;;;;;;;22.50;13.67;;;;;;;;;;5128480;27;20219;-65
2021/10/17 05:46:21;;;;;;;25.27;13.53;;;;;;;;;;5119622;28;20449;-65
2021/10/17 05:48:49;;;;;;;19.40;12.83;;;;;;;;;;5118862;28;20201;-64
2021/10/17 05:51:17;;;;;;;21.33;13.07;;;;;;;;;;5119565;28;20478;-64
2021/10/17 05:53:45;;;;;;;21.47;13.13;;;;;;;;;;5114003;28;20215;-64
2021/10/17 05:56:13;;;;;;;17.80;12.13;;;;;;;;;;5119267;28;20211;-64
2021/10/17 05:58:43;;;;;;;17.37;11.47;;;;;;;;;;5119408;28;20229;-64
2021/10/17 06:01:11;;;;;;;17.73;11.47;;;;;;;;;;5119267;28;20561;-64
2021/10/17 06:03:39;;;;;;;17.60;11.97;;;;;;;;;;5119789;28;20197;-64
2021/10/17 06:06:07;;;;;;;15.83;11.03;;;;;;;;;;5120032;28;20247;-64
2021/10/17 06:08:36;;;;;;;17.10;10.67;;;;;;;;;;5118714;28;20228;-64
2021/10/17 06:11:04;;;;;;;18.23;11.93;;;;;;;;;;5118424;28;20220;-64
2021/10/17 06:13:33;;;;;;;15.37;10.80;;;;;;;;;;5118136;28;20246;-64
2021/10/17 06:16:03;;;;;;;18.17;12.00;;;;;;;;;;5118475;28;20232;-65
2021/10/17 06:18:32;;;;;;;15.37;11.33;;;;;;;;;;5124878;27;20245;-64
2021/10/17 06:21:00;;;;;;;19.50;12.53;;;;;;;;;;5128838;27;20269;-64
2021/10/17 06:23:28;;;;;;;23.13;12.77;;;;;;;;;;5125196;27;20208;-64
2021/10/17 06:25:56;;;;;;;20.93;12.50;;;;;;;;;;5125012;27;20192;-64
2021/10/17 06:28:24;;;;;;;19.00;12.57;;;;;;;;;;5128693;27;20200;-64
2021/10/17 06:30:53;;;;;;;18.17;13.00;;;;;;;;;;5128337;27;20311;-64
2021/10/17 06:33:22;;;;;;;20.93;13.17;;;;;;;;;;5129114;27;20197;-64
2021/10/17 06:35:50;;;;;;;23.03;14.23;;;;;;;;;;5120064;27;20719;-64
2021/10/17 06:38:18;;;;;;;22.70;13.63;;;;;;;;;;5119635;28;20296;-65
2021/10/17 06:40:47;;;;;;;22.67;15.13;;;;;;;;;;5119615;28;20228;-64
2021/10/17 06:43:15;;;;;;;24.83;13.63;;;;;;;;;;5119598;28;20227;-63
2021/10/17 06:45:43;;;;;;;23.80;15.03;;;;;;;;;;5119760;28;20655;-63
2021/10/17 06:48:11;;;;;;;23.97;14.77;;;;;;;;;;5119387;28;20812;-63
2021/10/17 06:50:40;;;;;;;24.57;16.00;;;;;;;;;;5119408;28;20256;-64
2021/10/17 06:53:08;;;;;;;25.10;15.63;;;;;;;;;;5119407;28;20470;-64
2021/10/17 06:55:36;;;;;;;27.47;16.20;;;;;;;;;;5119577;27;20558;-63
2021/10/17 06:58:04;;;;;;;27.80;16.70;;;;;;;;;;5116991;28;20205;-63
2021/10/17 07:00:32;;;;;;;32.80;16.37;;;;;;;;;;5116268;28;20657;-63
2021/10/17 07:03:01;;;;;;;29.17;16.93;;;;;;;;;;5126461;27;20215;-64
2021/10/17 07:05:29;;;;;;;30.37;16.97;;;;;;;;;;5128046;27;20224;-64
2021/10/17 07:07:59;;;;;;;28.60;16.40;;;;;;;;;;5128553;27;20291;-63
2021/10/17 07:10:27;;;;;;;31.37;17.80;;;;;;;;;;5128204;27;20221;-63
2021/10/17 07:12:55;;;;;;;34.43;17.83;;;;;;;;;;5126413;27;20200;-63
2021/10/17 07:15:23;;;;;;;37.33;19.70;;;;;;;;;;5128840;27;20304;-63
2021/10/17 07:17:51;;;;;;;32.77;18.37;;;;;;;;;;5125547;27;20291;-63
2021/10/17 07:20:31;;;;;;;33.93;18.73;;;;;;;;;;5124514;27;20246;-63
2021/10/17 07:23:01;;;;;;;34.80;19.10;;;;;;;;;;5126669;27;20204;-64
2021/10/17 07:25:29;;;;;;;31.80;18.47;;;;;;;;;;5124104;27;20217;-63
2021/10/17 07:27:57;;;;;;;33.73;18.93;;;;;;;;;;5120391;27;20211;-63
2021/10/17 07:30:26;;;;;;;30.77;17.97;;;;;;;;;;5118863;28;20201;-64
2021/10/17 07:32:54;;;;;;;33.03;19.03;;;;;;;;;;5118417;28;20209;-63
2021/10/17 07:35:22;;;;;;;34.43;18.13;;;;;;;;;;5118048;28;20742;-63
2021/10/17 07:37:50;;;;;;;30.43;18.73;;;;;;;;;;5118260;28;20213;-63
2021/10/17 07:40:19;;;;;;;30.47;18.20;;;;;;;;;;5122621;27;20230;-64
2021/10/17 07:42:47;;;;;;;29.83;18.40;;;;;;;;;;5127548;27;20232;-63
2021/10/17 07:45:15;;;;;;;33.60;18.40;;;;;;;;;;5121368;27;20567;-63
2021/10/17 07:47:43;;;;;;;34.97;19.63;;;;;;;;;;5122492;27;20283;-63
2021/10/17 07:50:11;;;;;;;35.97;18.47;;;;;;;;;;5124234;27;20193;-63
2021/10/17 07:52:39;;;;;;;33.10;18.37;;;;;;;;;;5128028;27;20748;-63
2021/10/17 07:55:08;;;;;;;36.73;17.70;;;;;;;;;;5125595;27;20225;-63
2021/10/17 07:57:46;;;;;;;31.73;18.33;;;;;;;;;;5125812;27;20769;-63
2021/10/17 08:00:17;;;;;;;33.40;19.07;;;;;;;;;;5125697;27;20652;-63
2021/10/17 08:02:45;;;;;;;37.80;19.37;;;;;;;;;;5127310;27;20226;-63
2021/10/17 08:05:13;;;;;;;38.13;19.57;;;;;;;;;;5125249;27;20220;-63
2021/10/17 08:07:41;;;;;;;41.10;20.43;;;;;;;;;;5126201;27;20614;-63
2021/10/17 08:10:10;;;;;;;32.53;18.50;;;;;;;;;;5125901;28;20214;-63
2021/10/17 08:12:38;;;;;;;36.63;19.03;;;;;;;;;;5126274;27;20246;-63
2021/10/17 08:15:09;;;;;;;37.23;18.67;;;;;;;;;;5127210;28;20629;-63
2021/10/17 08:17:37;;;;;;;32.27;18.23;;;;;;;;;;5125197;28;20195;-63
2021/10/17 08:20:07;;;;;;;37.37;19.53;;;;;;;;;;5123861;28;20211;-63
2021/10/17 08:22:35;;;;;;;35.67;18.83;;;;;;;;;;5128271;28;20264;-63
2021/10/17 08:25:04;;;;;;;33.73;19.80;;;;;;;;;;5120218;28;20223;-63
2021/10/17 08:27:32;;;;;;;33.03;19.20;;;;;;;;;;5119653;28;20265;-63
2021/10/17 08:30:00;;;;;;;32.17;18.40;;;;;;;;;;5117893;28;20211;-63
2021/10/17 08:32:30;;;;;;;39.03;19.57;;;;;;;;;;5117798;28;20228;-63
2021/10/17 08:34:58;;;;;;;32.60;17.90;;;;;;;;;;5125274;27;20304;-63
2021/10/17 08:37:26;;;;;;;30.60;18.93;;;;;;;;;;5124241;28;20268;-63
2021/10/17 08:39:54;;;;;;;33.47;19.13;;;;;;;;;;5124658;28;20307;-64
2021/10/17 08:42:25;;;;;;;35.93;19.23;;;;;;;;;;5123844;28;20196;-63
2021/10/17 08:45:03;;;;;;;32.03;18.60;;;;;;;;;;5125856;28;20220;-62
2021/10/17 08:47:33;;;;;;;36.50;19.97;;;;;;;;;;5127637;28;20568;-63
2021/10/17 08:50:01;;;;;;;31.97;18.83;;;;;;;;;;5126746;28;20207;-63
2021/10/17 08:52:29;;;;;;;36.40;19.83;;;;;;;;;;5125198;28;20221;-63
2021/10/17 08:54:57;;;;;;;30.97;17.37;;;;;;;;;;5128303;28;20223;-63
2021/10/17 08:57:26;;;;;;;36.13;19.17;;;;;;;;;;5124469;28;20253;-63
2021/10/17 08:59:54;;;;;;;33.27;18.37;;;;;;;;;;5118114;28;20636;-63
2021/10/17 09:02:23;;;;;;;33.10;19.70;;;;;;;;;;5117875;28;20207;-63
2021/10/17 09:05:00;;;;;;;35.40;19.03;;;;;;;;;;5117834;28;20757;-63
2021/10/17 09:07:28;;;;;;;34.43;19.33;;;;;;;;;;5117642;28;20211;-63
2021/10/17 09:10:10;;;;;;;34.30;18.40;;;;;;;;;;5119726;28;20215;-63
2021/10/17 09:12:39;;;;;;;26.37;17.17;;;;;;;;;;5125693;28;21796;-63
2021/10/17 09:15:20;;;;;;;30.73;18.13;;;;;;;;;;5117741;28;20320;-63
2021/10/17 09:18:06;;;;;;;32.67;19.10;;;;;;;;;;5123491;28;20236;-63
2021/10/17 09:20:37;;;;;;;30.10;18.70;;;;;;;;;;5126299;28;20210;-63
2021/10/17 09:23:05;;;;;;;29.00;18.67;;;;;;;;;;5124807;27;20201;-64
2021/10/17 09:25:34;;;;;;;31.63;19.10;;;;;;;;;;5123066;27;20219;-64
2021/10/17 09:28:13;;;;;;;29.93;19.40;;;;;;;;;;5124826;27;20205;-62
2021/10/17 09:30:41;;;;;;;33.33;20.33;;;;;;;;;;5127865;27;20254;-63
2021/10/17 09:33:24;;;;;;;35.33;20.13;;;;;;;;;;5130099;27;20712;-63
2021/10/17 09:35:54;;;;;;;37.20;20.43;;;;;;;;;;5120916;28;20256;-63
2021/10/17 09:38:34;;;;;;;31.80;19.87;;;;;;;;;;5120342;28;20580;-64
2021/10/17 09:41:13;;;;;;;36.63;20.67;;;;;;;;;;5120741;28;20205;-63
2021/10/17 09:43:43;;;;;;;33.50;19.80;;;;;;;;;;5120292;28;20264;-63
2021/10/17 09:46:12;;;;;;;34.53;19.70;;;;;;;;;;5120584;27;20215;-63
2021/10/17 09:48:40;;;;;;;33.57;19.87;;;;;;;;;;5120218;28;20251;-63
2021/10/17 09:51:10;;;;;;;36.03;19.90;;;;;;;;;;5120301;28;20676;-63
2021/10/17 09:53:42;;;;;;;31.33;20.67;;;;;;;;;;5119875;28;20756;-63
2021/10/17 09:56:11;;;;;;;30.77;19.87;;;;;;;;;;5120486;28;20283;-64
2021/10/17 09:58:39;;;;;;;36.57;20.77;;;;;;;;;;5119973;27;20680;-63
2021/10/17 10:01:07;;;;;;;31.57;20.30;;;;;;;;;;5119987;28;20295;-63
2021/10/17 10:03:36;;;;;;;29.37;19.43;;;;;;;;;;5120376;28;20201;-64
2021/10/17 10:06:04;;;;;;;32.57;19.33;;;;;;;;;;5123386;27;20260;-65
2021/10/17 10:08:34;;;;;;;32.20;19.37;;;;;;;;;;5129506;27;20282;-63
2021/10/17 10:11:02;;;;;;;31.13;18.20;;;;;;;;;;5129214;27;20279;-63
2021/10/17 10:13:31;;;;;;;31.40;19.90;;;;;;;;;;5123315;27;20220;-65
2021/10/17 10:16:00;;;;;;;29.23;18.27;;;;;;;;;;5129333;27;20204;-63
2021/10/17 10:18:28;;;;;;;30.07;19.40;;;;;;;;;;5129845;27;20203;-63
2021/10/17 10:20:56;;;;;;;32.10;18.10;;;;;;;;;;5127125;27;20196;-63
2021/10/17 10:23:25;;;;;;;30.60;20.37;;;;;;;;;;5125043;27;20193;-64
2021/10/17 10:25:55;;;;;;;31.67;19.70;;;;;;;;;;5118142;27;20204;-63
2021/10/17 10:28:26;;;;;;;30.80;20.23;;;;;;;;;;5115462;28;20674;-63
2021/10/17 10:30:53;;;;;;;32.50;19.50;;;;;;;;;;5118171;28;20537;-63
2021/10/17 10:33:25;;;;;;;29.57;18.63;;;;;;;;;;5118105;28;20266;-63
2021/10/17 10:36:07;;;;;;;32.37;20.37;;;;;;;;;;5117540;28;20209;-63
2021/10/17 10:38:53;;;;;;;33.73;21.10;;;;;;;;;;5116575;28;20200;-64
2021/10/17 10:41:26;;;;;;;28.70;19.23;;;;;;;;;;5118451;28;20201;-63
2021/10/17 10:44:11;;;;;;;31.90;19.73;;;;;;;;;;5118585;28;20220;-63
2021/10/17 10:46:39;;;;;;;28.77;19.30;;;;;;;;;;5117781;28;20203;-63
2021/10/17 10:49:07;;;;;;;30.60;21.07;;;;;;;;;;5118393;28;20215;-63
2021/10/17 10:51:39;;;;;;;33.23;20.63;;;;;;;;;;5116361;28;20193;-63
2021/10/17 10:54:28;;;;;;;37.60;22.47;;;;;;;;;;5118968;28;20274;-63
2021/10/17 10:56:58;;;;;;;35.77;21.00;;;;;;;;;;5116818;28;20201;-64
2021/10/17 10:59:29;;;;;;;30.27;20.50;;;;;;;;;;5118798;28;20211;-63
2021/10/17 11:02:01;;;;;;;32.80;21.90;;;;;;;;;;5118399;28;20224;-63
2021/10/17 11:04:45;;;;;;;30.50;19.23;;;;;;;;;;5118518;28;20225;-63
2021/10/17 11:07:19;;;;;;;32.80;21.47;;;;;;;;;;5107221;28;20197;-64
2021/10/17 11:09:48;;;;;;;29.73;20.60;;;;;;;;;;5118320;28;20261;-64
2021/10/17 11:12:30;;;;;;;30.73;20.27;;;;;;;;;;5115601;28;20198;-64
2021/10/17 11:15:01;;;;;;;32.67;19.83;;;;;;;;;;5121558;27;20222;-64
2021/10/17 11:17:29;;;;;;;29.07;20.33;;;;;;;;;;5128778;27;20238;-64
2021/10/17 11:19:57;;;;;;;28.53;19.00;;;;;;;;;;5117614;28;20215;-64
2021/10/17 11:22:26;;;;;;;32.47;20.37;;;;;;;;;;5118348;28;20205;-63
2021/10/17 11:24:54;;;;;;;31.30;19.10;;;;;;;;;;5118565;28;20231;-64
2021/10/17 11:27:23;;;;;;;30.93;18.70;;;;;;;;;;5118383;28;20205;-64
2021/10/17 11:29:51;;;;;;;31.07;19.40;;;;;;;;;;5118229;28;20205;-64
2021/10/17 11:32:20;;;;;;;29.87;18.90;;;;;;;;;;5118597;28;20204;-64
2021/10/17 11:34:58;;;;;;;28.77;18.97;;;;;;;;;;5118676;27;20258;-64
2021/10/17 11:37:28;;;;;;;27.97;18.50;;;;;;;;;;5118589;28;20272;-64
2021/10/17 11:39:57;;;;;;;29.03;19.30;;;;;;;;;;5117850;28;20323;-64
2021/10/17 11:42:25;;;;;;;29.03;19.27;;;;;;;;;;5118324;28;20209;-64
2021/10/17 11:44:55;;;;;;;26.93;18.00;;;;;;;;;;5118207;28;20653;-64
2021/10/17 11:47:24;;;;;;;25.57;18.10;;;;;;;;;;5117514;27;20299;-64
2021/10/17 11:49:52;;;;;;;27.97;18.53;;;;;;;;;;5112253;28;20205;-64
2021/10/17 11:52:22;;;;;;;27.13;18.33;;;;;;;;;;5118151;28;20205;-64
2021/10/17 11:54:50;;;;;;;28.33;19.03;;;;;;;;;;5118064;28;20267;-64
2021/10/17 11:57:28;;;;;;;24.70;17.47;;;;;;;;;;5118203;28;20678;-64
2021/10/17 11:59:56;;;;;;;26.77;16.27;;;;;;;;;;5118252;28;20201;-64
2021/10/17 12:02:32;;;;;;;22.63;15.70;;;;;;;;;;5117908;28;20205;-64
2021/10/17 12:05:00;;;;;;;24.33;16.43;;;;;;;;;;5118169;28;20217;-64
2021/10/17 12:07:29;;;;;;;24.83;16.03;;;;;;;;;;5118233;28;20292;-64
2021/10/17 12:09:58;;;;;;;20.17;14.87;;;;;;;;;;5117866;28;20243;-64
2021/10/17 12:12:26;;;;;;;24.77;15.83;;;;;;;;;;5117963;28;20215;-64
2021/10/17 12:15:01;;;;;;;33.00;22.03;;;;;;;;;;5117717;28;20233;-64
2021/10/17 12:17:29;;;;;;;21.30;14.80;;;;;;;;;;5117813;28;20204;-64
2021/10/17 12:20:03;;;;;;;25.37;15.20;;;;;;;;;;5118311;28;20209;-64
2021/10/17 12:22:31;;;;;;;20.73;13.73;;;;;;;;;;5117875;28;20204;-64
2021/10/17 12:25:00;;;;;;;21.50;14.33;;;;;;;;;;5117924;28;20222;-64
2021/10/17 12:27:32;;;;;;;25.13;13.70;;;;;;;;;;5117450;28;20212;-64
2021/10/17 12:30:07;;;;;;;20.90;14.43;;;;;;;;;;5117741;28;20283;-64
2021/10/17 12:32:43;;;;;;;22.00;15.87;;;;;;;;;;5117743;28;20204;-64
2021/10/17 12:35:37;;;;;;;20.37;13.40;;;;;;;;;;5117797;28;20235;-64
2021/10/17 12:38:08;;;;;;;21.10;13.57;;;;;;;;;;5104569;28;20200;-64
2021/10/17 12:40:50;;;;;;;18.07;11.90;;;;;;;;;;5117554;28;20240;-65
2021/10/17 12:43:23;;;;;;;16.47;12.03;;;;;;;;;;5117529;28;20292;-65
2021/10/17 12:45:52;;;;;;;16.90;12.33;;;;;;;;;;5117552;28;20221;-64
2021/10/17 12:48:33;;;;;;;16.80;11.97;;;;;;;;;;5117756;28;20208;-64
2021/10/17 12:51:01;;;;;;;15.33;11.77;;;;;;;;;;5117797;28;20213;-64
2021/10/17 12:53:30;;;;;;;18.17;12.30;;;;;;;;;;5117414;28;20232;-64
2021/10/17 12:55:59;;;;;;;14.93;10.73;;;;;;;;;;5117331;28;20204;-64
2021/10/17 12:58:29;;;;;;;17.03;11.60;;;;;;;;;;5118452;28;20211;-64
2021/10/17 13:01:05;;;;;;;17.53;10.87;;;;;;;;;;5121516;27;20266;-64
2021/10/17 13:03:33;;;;;;;13.70;10.17;;;;;;;;;;5121074;28;20205;-64
2021/10/17 13:06:05;;;;;;;14.17;10.93;;;;;;;;;;5121358;28;20211;-64
2021/10/17 13:08:50;;;;;;;14.53;10.30;;;;;;;;;;5121388;28;20649;-64
2021/10/17 13:11:18;;;;;;;13.97;9.63;;;;;;;;;;5121237;28;20668;-64
2021/10/17 13:13:46;;;;;;;14.73;10.60;;;;;;;;;;5120941;28;20292;-64
2021/10/17 13:16:14;;;;;;;10.97;8.90;;;;;;;;;;5120878;28;20215;-64
2021/10/17 13:18:42;;;;;;;11.87;8.83;;;;;;;;;;5121174;28;20238;-64
2021/10/17 13:21:12;;;;;;;13.53;9.40;;;;;;;;;;5120807;28;20613;-64
2021/10/17 13:23:41;;;;;;;12.93;9.53;;;;;;;;;;5120828;28;20215;-64
2021/10/17 13:26:09;;;;;;;13.13;10.27;;;;;;;;;;5120670;28;20664;-64
2021/10/17 13:28:37;;;;;;;12.37;9.73;;;;;;;;;;5120949;28;20211;-64
2021/10/17 13:31:05;;;;;;;13.10;9.77;;;;;;;;;;5121388;28;20211;-66
2021/10/17 13:33:33;;;;;;;11.33;9.33;;;;;;;;;;5120613;28;20291;-65
2021/10/17 13:36:01;;;;;;;13.07;9.70;;;;;;;;;;5120652;28;20204;-67
2021/10/17 13:38:29;;;;;;;12.70;9.90;;;;;;;;;;5120314;28;20208;-67
2021/10/17 13:41:00;;;;;;;16.37;11.63;;;;;;;;;;5120455;28;20616;-67
2021/10/17 13:43:31;;;;;;;12.03;9.97;;;;;;;;;;5119809;27;20653;-67
2021/10/17 13:45:58;;;;;;;13.63;9.60;;;;;;;;;;5120604;28;20204;-66
2021/10/17 13:48:26;;;;;;;14.43;11.00;;;;;;;;;;5120624;28;20239;-64
2021/10/17 13:50:54;;;;;;;16.70;9.67;;;;;;;;;;5120571;28;20207;-65
2021/10/17 13:53:22;;;;;;;12.60;9.30;;;;;;;;;;5120605;27;20209;-64
2021/10/17 13:55:50;;;;;;;15.77;9.70;;;;;;;;;;5120305;28;20236;-65
2021/10/17 13:58:20;;;;;;;12.67;9.47;;;;;;;;;;5110584;28;20670;-64
2021/10/17 14:00:48;;;;;;;12.20;9.13;;;;;;;;;;5112737;28;20634;-66
2021/10/17 14:03:17;;;;;;;13.87;9.37;;;;;;;;;;5116270;28;20225;-65
2021/10/17 14:05:44;;;;;;;12.73;9.40;;;;;;;;;;5114572;28;20227;-65
2021/10/17 14:08:12;;;;;;;11.53;9.70;;;;;;;;;;5110776;28;20229;-64
2021/10/17 14:10:40;;;;;;;11.97;9.23;;;;;;;;;;5112414;28;20275;-65
2021/10/17 14:13:09;;;;;;;11.20;9.00;;;;;;;;;;5111575;28;20201;-66
2021/10/17 14:15:39;;;;;;;10.50;8.93;;;;;;;;;;5111839;28;20231;-65
2021/10/17 14:18:07;;;;;;;13.50;8.80;;;;;;;;;;5113977;28;20201;-63
2021/10/17 14:20:35;;;;;;;10.57;8.43;;;;;;;;;;5111038;28;20741;-63
2021/10/17 14:23:03;;;;;;;11.73;9.43;;;;;;;;;;5116667;28;20205;-64
2021/10/17 14:25:31;;;;;;;12.20;8.90;;;;;;;;;;5119252;28;20843;-64
2021/10/17 14:27:59;;;;;;;11.23;9.00;;;;;;;;;;5114965;28;20556;-65
2021/10/17 14:30:27;;;;;;;11.80;9.33;;;;;;;;;;5118915;28;20205;-64